sensor_id;sensor_type;location;lat;lon;timestamp;temperature;humidity
6810;DHT22;3443;48.812;9.112;2022-11-02T00:00:18;9.40;99.90
6810;DHT22;3443;48.812;9.112;2022-11-02T00:02:43;9.40;99.90
6810;DHT22;3443;48.812;9.112;2022-11-02T00:05:12;9.30;99.90
6810;DHT22;3443;48.812;9.112;2022-11-02T00:07:39;9.30;99.90
6810;DHT22;3443;48.812;9.112;2022-11-02T00:10:06;9.20;99.90
6810;DHT22;3443;48.812;9.112;2022-11-02T00:12:32;9.20;99.90
6810;DHT22;3443;48.812;9.112;2022-11-02T00:14:57;9.20;99.90
6810;DHT22;3443;48.812;9.112;2022-11-02T00:17:23;9.20;99.90
6810;DHT22;3443;48.812;9.112;2022-11-02T00:19:49;9.20;99.90
6810;DHT22;3443;48.812;9.112;2022-11-02T00:22:14;9.20;99.90
6810;DHT22;3443;48.812;9.112;2022-11-02T00:24:40;9.10;99.90
6810;DHT22;3443;48.812;9.112;2022-11-02T00:27:06;9.20;99.90
6810;DHT22;3443;48.812;9.112;2022-11-02T00:29:33;9.20;99.90
6810;DHT22;3443;48.812;9.112;2022-11-02T00:31:59;9.30;99.90
6810;DHT22;3443;48.812;9.112;2022-11-02T00:34:25;9.30;99.90
6810;DHT22;3443;48.812;9.112;2022-11-02T00:36:50;9.30;99.90
6810;DHT22;3443;48.812;9.112;2022-11-02T00:39:16;9.30;99.90
6810;DHT22;3443;48.812;9.112;2022-11-02T00:41:42;9.30;99.90
6810;DHT22;3443;48.812;9.112;2022-11-02T00:44:07;9.30;99.90
6810;DHT22;3443;48.812;9.112;2022-11-02T00:46:33;9.30;99.90
6810;DHT22;3443;48.812;9.112;2022-11-02T00:48:58;9.30;99.90
6810;DHT22;3443;48.812;9.112;2022-11-02T00:51:24;9.30;99.90
6810;DHT22;3443;48.812;9.112;2022-11-02T00:53:49;9.30;99.90
6810;DHT22;3443;48.812;9.112;2022-11-02T00:56:15;9.40;99.90
6810;DHT22;3443;48.812;9.112;2022-11-02T00:58:40;9.40;99.90
6810;DHT22;3443;48.812;9.112;2022-11-02T01:01:07;9.50;99.90
6810;DHT22;3443;48.812;9.112;2022-11-02T01:03:32;9.50;99.90
6810;DHT22;3443;48.812;9.112;2022-11-02T01:05:58;9.50;99.90
6810;DHT22;3443;48.812;9.112;2022-11-02T01:08:23;9.60;99.90
6810;DHT22;3443;48.812;9.112;2022-11-02T01:10:49;9.60;99.90
6810;DHT22;3443;48.812;9.112;2022-11-02T01:13:15;9.70;99.90
6810;DHT22;3443;48.812;9.112;2022-11-02T01:15:40;9.70;99.90
6810;DHT22;3443;48.812;9.112;2022-11-02T01:18:07;9.80;99.90
6810;DHT22;3443;48.812;9.112;2022-11-02T01:20:33;9.80;99.90
6810;DHT22;3443;48.812;9.112;2022-11-02T01:22:59;9.80;99.90
6810;DHT22;3443;48.812;9.112;2022-11-02T01:25:25;9.90;99.90
6810;DHT22;3443;48.812;9.112;2022-11-02T01:27:50;10.00;99.90
6810;DHT22;3443;48.812;9.112;2022-11-02T01:30:16;10.00;99.90
6810;DHT22;3443;48.812;9.112;2022-11-02T01:32:41;10.10;99.90
6810;DHT22;3443;48.812;9.112;2022-11-02T01:35:07;10.10;99.90
6810;DHT22;3443;48.812;9.112;2022-11-02T01:37:34;10.10;99.90
6810;DHT22;3443;48.812;9.112;2022-11-02T01:40:00;10.20;99.90
6810;DHT22;3443;48.812;9.112;2022-11-02T01:42:26;10.20;99.90
6810;DHT22;3443;48.812;9.112;2022-11-02T01:44:53;10.20;99.90
6810;DHT22;3443;48.812;9.112;2022-11-02T01:47:22;10.20;99.90
6810;DHT22;3443;48.812;9.112;2022-11-02T01:49:56;10.30;99.90
6810;DHT22;3443;48.812;9.112;2022-11-02T01:52:26;10.30;99.90
6810;DHT22;3443;48.812;9.112;2022-11-02T01:55:00;10.30;99.90
6810;DHT22;3443;48.812;9.112;2022-11-02T01:57:27;10.30;99.90
6810;DHT22;3443;48.812;9.112;2022-11-02T02:00:03;10.30;99.90
6810;DHT22;3443;48.812;9.112;2022-11-02T02:02:31;10.30;99.90
6810;DHT22;3443;48.812;9.112;2022-11-02T02:05:03;10.20;99.90
6810;DHT22;3443;48.812;9.112;2022-11-02T02:07:30;10.20;99.90
6810;DHT22;3443;48.812;9.112;2022-11-02T02:09:57;10.30;99.90
6810;DHT22;3443;48.812;9.112;2022-11-02T02:12:23;10.30;99.90
6810;DHT22;3443;48.812;9.112;2022-11-02T02:14:50;10.30;99.90
6810;DHT22;3443;48.812;9.112;2022-11-02T02:20:06;10.30;99.90
6810;DHT22;3443;48.812;9.112;2022-11-02T02:33:42;10.40;99.90
6810;DHT22;3443;48.812;9.112;2022-11-02T02:36:10;10.30;99.90
6810;DHT22;3443;48.812;9.112;2022-11-02T02:38:44;10.40;99.90
6810;DHT22;3443;48.812;9.112;2022-11-02T02:41:10;10.40;99.90
6810;DHT22;3443;48.812;9.112;2022-11-02T02:43:46;10.40;99.90
6810;DHT22;3443;48.812;9.112;2022-11-02T02:47:05;10.40;99.90
6810;DHT22;3443;48.812;9.112;2022-11-02T02:49:13;10.50;99.90
6810;DHT22;3443;48.812;9.112;2022-11-02T02:51:40;10.50;99.90
6810;DHT22;3443;48.812;9.112;2022-11-02T02:54:17;10.50;99.90
6810;DHT22;3443;48.812;9.112;2022-11-02T02:56:50;10.60;99.90
6810;DHT22;3443;48.812;9.112;2022-11-02T02:59:42;10.60;99.90
6810;DHT22;3443;48.812;9.112;2022-11-02T03:02:20;10.60;99.90
6810;DHT22;3443;48.812;9.112;2022-11-02T03:04:47;10.60;99.90
6810;DHT22;3443;48.812;9.112;2022-11-02T03:07:17;10.60;99.90
6810;DHT22;3443;48.812;9.112;2022-11-02T03:09:49;10.70;99.90
6810;DHT22;3443;48.812;9.112;2022-11-02T03:14:58;10.70;99.90
6810;DHT22;3443;48.812;9.112;2022-11-02T03:23:17;10.70;99.90
6810;DHT22;3443;48.812;9.112;2022-11-02T03:28:58;10.80;99.90
6810;DHT22;3443;48.812;9.112;2022-11-02T03:31:49;10.80;99.90
6810;DHT22;3443;48.812;9.112;2022-11-02T03:39:48;10.80;99.90
6810;DHT22;3443;48.812;9.112;2022-11-02T03:42:18;10.80;99.90
6810;DHT22;3443;48.812;9.112;2022-11-02T03:44:46;10.80;99.90
6810;DHT22;3443;48.812;9.112;2022-11-02T03:47:14;10.80;99.90
6810;DHT22;3443;48.812;9.112;2022-11-02T03:49:42;10.80;99.90
6810;DHT22;3443;48.812;9.112;2022-11-02T03:52:11;10.80;99.90
6810;DHT22;3443;48.812;9.112;2022-11-02T03:54:41;10.80;99.90
6810;DHT22;3443;48.812;9.112;2022-11-02T03:57:10;10.80;99.90
6810;DHT22;3443;48.812;9.112;2022-11-02T03:59:39;10.80;99.90
6810;DHT22;3443;48.812;9.112;2022-11-02T04:02:08;10.80;99.90
6810;DHT22;3443;48.812;9.112;2022-11-02T04:04:34;10.80;99.90
6810;DHT22;3443;48.812;9.112;2022-11-02T04:07:00;10.80;99.90
6810;DHT22;3443;48.812;9.112;2022-11-02T04:09:25;10.80;99.90
6810;DHT22;3443;48.812;9.112;2022-11-02T04:11:51;10.80;99.90
6810;DHT22;3443;48.812;9.112;2022-11-02T04:14:35;10.80;99.90
6810;DHT22;3443;48.812;9.112;2022-11-02T04:17:10;10.80;99.90
6810;DHT22;3443;48.812;9.112;2022-11-02T04:19:55;10.80;99.90
6810;DHT22;3443;48.812;9.112;2022-11-02T04:22:21;10.90;99.90
6810;DHT22;3443;48.812;9.112;2022-11-02T04:25:06;10.90;99.90
6810;DHT22;3443;48.812;9.112;2022-11-02T04:27:40;10.90;99.90
6810;DHT22;3443;48.812;9.112;2022-11-02T04:30:06;10.80;99.90
6810;DHT22;3443;48.812;9.112;2022-11-02T04:32:45;10.80;99.90
6810;DHT22;3443;48.812;9.112;2022-11-02T04:35:30;10.80;99.90
6810;DHT22;3443;48.812;9.112;2022-11-02T04:37:57;10.80;99.90
6810;DHT22;3443;48.812;9.112;2022-11-02T04:40:41;10.80;99.90
6810;DHT22;3443;48.812;9.112;2022-11-02T04:43:07;10.70;99.90
6810;DHT22;3443;48.812;9.112;2022-11-02T04:45:33;10.70;99.90
6810;DHT22;3443;48.812;9.112;2022-11-02T04:48:04;10.70;99.90
6810;DHT22;3443;48.812;9.112;2022-11-02T04:50:30;10.70;99.90
6810;DHT22;3443;48.812;9.112;2022-11-02T04:52:57;10.60;99.90
6810;DHT22;3443;48.812;9.112;2022-11-02T04:55:23;10.60;99.90
6810;DHT22;3443;48.812;9.112;2022-11-02T04:57:49;10.70;99.90
6810;DHT22;3443;48.812;9.112;2022-11-02T05:00:15;10.50;99.90
6810;DHT22;3443;48.812;9.112;2022-11-02T05:02:41;10.50;99.90
6810;DHT22;3443;48.812;9.112;2022-11-02T05:05:07;10.50;99.90
6810;DHT22;3443;48.812;9.112;2022-11-02T05:07:32;10.50;99.90
6810;DHT22;3443;48.812;9.112;2022-11-02T05:09:58;10.50;99.90
6810;DHT22;3443;48.812;9.112;2022-11-02T05:12:23;10.50;99.90
6810;DHT22;3443;48.812;9.112;2022-11-02T05:14:49;10.50;99.90
6810;DHT22;3443;48.812;9.112;2022-11-02T05:17:14;10.50;99.90
6810;DHT22;3443;48.812;9.112;2022-11-02T05:19:40;10.50;99.90
6810;DHT22;3443;48.812;9.112;2022-11-02T05:22:06;10.40;99.90
6810;DHT22;3443;48.812;9.112;2022-11-02T05:24:32;10.40;99.90
6810;DHT22;3443;48.812;9.112;2022-11-02T05:26:58;10.40;99.90
6810;DHT22;3443;48.812;9.112;2022-11-02T05:29:27;10.30;99.90
6810;DHT22;3443;48.812;9.112;2022-11-02T05:31:52;10.30;99.90
6810;DHT22;3443;48.812;9.112;2022-11-02T05:34:18;10.30;99.90
6810;DHT22;3443;48.812;9.112;2022-11-02T05:36:43;10.30;99.90
6810;DHT22;3443;48.812;9.112;2022-11-02T05:39:12;10.30;99.90
6810;DHT22;3443;48.812;9.112;2022-11-02T05:41:37;10.30;99.90
6810;DHT22;3443;48.812;9.112;2022-11-02T05:44:03;10.30;99.90
6810;DHT22;3443;48.812;9.112;2022-11-02T05:46:28;10.30;99.90
6810;DHT22;3443;48.812;9.112;2022-11-02T05:48:54;10.30;99.90
6810;DHT22;3443;48.812;9.112;2022-11-02T05:51:20;10.30;99.90
6810;DHT22;3443;48.812;9.112;2022-11-02T05:53:45;10.20;99.90
6810;DHT22;3443;48.812;9.112;2022-11-02T05:56:11;10.20;99.90
6810;DHT22;3443;48.812;9.112;2022-11-02T05:58:37;10.20;99.90
6810;DHT22;3443;48.812;9.112;2022-11-02T06:01:05;10.10;99.90
6810;DHT22;3443;48.812;9.112;2022-11-02T06:03:31;10.10;99.90
6810;DHT22;3443;48.812;9.112;2022-11-02T06:06:01;10.10;99.90
6810;DHT22;3443;48.812;9.112;2022-11-02T06:08:29;10.10;99.90
6810;DHT22;3443;48.812;9.112;2022-11-02T06:10:55;10.10;99.90
6810;DHT22;3443;48.812;9.112;2022-11-02T06:13:21;10.10;99.90
6810;DHT22;3443;48.812;9.112;2022-11-02T06:15:46;10.10;99.90
6810;DHT22;3443;48.812;9.112;2022-11-02T06:18:12;10.00;99.90
6810;DHT22;3443;48.812;9.112;2022-11-02T06:20:39;10.00;99.90
6810;DHT22;3443;48.812;9.112;2022-11-02T06:23:04;10.10;99.90
6810;DHT22;3443;48.812;9.112;2022-11-02T06:25:30;10.10;99.90
6810;DHT22;3443;48.812;9.112;2022-11-02T06:27:56;10.00;99.90
6810;DHT22;3443;48.812;9.112;2022-11-02T06:30:23;10.00;99.90
6810;DHT22;3443;48.812;9.112;2022-11-02T06:32:49;10.10;99.90
6810;DHT22;3443;48.812;9.112;2022-11-02T06:35:16;10.20;99.90
6810;DHT22;3443;48.812;9.112;2022-11-02T06:37:45;10.30;99.90
6810;DHT22;3443;48.812;9.112;2022-11-02T06:40:12;10.50;99.90
6810;DHT22;3443;48.812;9.112;2022-11-02T06:42:38;10.50;99.90
6810;DHT22;3443;48.812;9.112;2022-11-02T06:45:05;10.60;99.90
6810;DHT22;3443;48.812;9.112;2022-11-02T06:47:32;10.60;99.90
6810;DHT22;3443;48.812;9.112;2022-11-02T06:49:58;10.70;99.90
6810;DHT22;3443;48.812;9.112;2022-11-02T06:52:25;10.70;99.90
6810;DHT22;3443;48.812;9.112;2022-11-02T06:54:51;10.80;99.90
6810;DHT22;3443;48.812;9.112;2022-11-02T06:57:17;10.80;99.90
6810;DHT22;3443;48.812;9.112;2022-11-02T06:59:42;10.90;99.90
6810;DHT22;3443;48.812;9.112;2022-11-02T07:02:08;10.90;99.90
6810;DHT22;3443;48.812;9.112;2022-11-02T07:04:34;11.00;99.90
6810;DHT22;3443;48.812;9.112;2022-11-02T07:06:59;11.10;99.90
6810;DHT22;3443;48.812;9.112;2022-11-02T07:09:25;11.00;99.90
6810;DHT22;3443;48.812;9.112;2022-11-02T07:11:50;11.10;99.90
6810;DHT22;3443;48.812;9.112;2022-11-02T07:14:16;11.10;99.90
6810;DHT22;3443;48.812;9.112;2022-11-02T07:16:42;11.10;99.90
6810;DHT22;3443;48.812;9.112;2022-11-02T07:19:08;11.10;99.90
6810;DHT22;3443;48.812;9.112;2022-11-02T07:21:33;11.10;99.90
6810;DHT22;3443;48.812;9.112;2022-11-02T07:23:59;11.10;99.90
6810;DHT22;3443;48.812;9.112;2022-11-02T07:26:25;11.20;99.90
6810;DHT22;3443;48.812;9.112;2022-11-02T07:28:51;11.20;99.90
6810;DHT22;3443;48.812;9.112;2022-11-02T07:31:17;11.20;99.90
6810;DHT22;3443;48.812;9.112;2022-11-02T07:33:43;11.40;99.90
6810;DHT22;3443;48.812;9.112;2022-11-02T07:36:09;11.40;99.90
6810;DHT22;3443;48.812;9.112;2022-11-02T07:38:34;11.50;99.90
6810;DHT22;3443;48.812;9.112;2022-11-02T07:41:00;11.50;99.90
6810;DHT22;3443;48.812;9.112;2022-11-02T07:43:26;11.50;99.90
6810;DHT22;3443;48.812;9.112;2022-11-02T07:45:53;11.50;99.90
6810;DHT22;3443;48.812;9.112;2022-11-02T07:48:18;11.50;99.90
6810;DHT22;3443;48.812;9.112;2022-11-02T07:50:44;11.50;99.90
6810;DHT22;3443;48.812;9.112;2022-11-02T07:53:10;11.60;99.90
6810;DHT22;3443;48.812;9.112;2022-11-02T07:55:35;11.70;99.90
6810;DHT22;3443;48.812;9.112;2022-11-02T07:58:03;11.80;99.90
6810;DHT22;3443;48.812;9.112;2022-11-02T08:00:32;11.80;99.90
6810;DHT22;3443;48.812;9.112;2022-11-02T08:02:59;11.90;99.90
6810;DHT22;3443;48.812;9.112;2022-11-02T08:05:26;11.90;99.90
6810;DHT22;3443;48.812;9.112;2022-11-02T08:08:11;12.00;99.90
6810;DHT22;3443;48.812;9.112;2022-11-02T08:10:38;12.00;99.90
6810;DHT22;3443;48.812;9.112;2022-11-02T08:13:04;12.10;99.90
6810;DHT22;3443;48.812;9.112;2022-11-02T08:15:30;12.30;99.90
6810;DHT22;3443;48.812;9.112;2022-11-02T08:18:11;12.40;99.90
6810;DHT22;3443;48.812;9.112;2022-11-02T08:20:37;12.50;99.90
6810;DHT22;3443;48.812;9.112;2022-11-02T08:23:04;12.60;99.90
6810;DHT22;3443;48.812;9.112;2022-11-02T08:25:30;12.70;99.90
6810;DHT22;3443;48.812;9.112;2022-11-02T08:27:57;12.70;99.90
6810;DHT22;3443;48.812;9.112;2022-11-02T08:30:24;12.80;99.90
6810;DHT22;3443;48.812;9.112;2022-11-02T08:32:49;12.80;99.90
6810;DHT22;3443;48.812;9.112;2022-11-02T08:35:15;12.90;99.90
6810;DHT22;3443;48.812;9.112;2022-11-02T08:37:40;13.00;99.90
6810;DHT22;3443;48.812;9.112;2022-11-02T08:40:07;13.00;99.90
6810;DHT22;3443;48.812;9.112;2022-11-02T08:42:32;13.00;99.90
6810;DHT22;3443;48.812;9.112;2022-11-02T08:44:58;13.00;99.90
6810;DHT22;3443;48.812;9.112;2022-11-02T08:47:23;13.10;99.90
6810;DHT22;3443;48.812;9.112;2022-11-02T08:49:49;13.10;99.90
6810;DHT22;3443;48.812;9.112;2022-11-02T08:52:17;13.20;99.90
6810;DHT22;3443;48.812;9.112;2022-11-02T08:54:42;13.20;99.90
6810;DHT22;3443;48.812;9.112;2022-11-02T08:57:08;13.30;99.90
6810;DHT22;3443;48.812;9.112;2022-11-02T08:59:34;13.40;99.90
6810;DHT22;3443;48.812;9.112;2022-11-02T09:01:59;13.40;99.90
6810;DHT22;3443;48.812;9.112;2022-11-02T09:04:25;13.40;99.90
6810;DHT22;3443;48.812;9.112;2022-11-02T09:06:50;13.50;99.90
6810;DHT22;3443;48.812;9.112;2022-11-02T09:09:16;13.40;99.90
6810;DHT22;3443;48.812;9.112;2022-11-02T09:11:42;13.40;99.90
6810;DHT22;3443;48.812;9.112;2022-11-02T09:14:07;13.40;99.90
6810;DHT22;3443;48.812;9.112;2022-11-02T09:16:33;13.40;99.90
6810;DHT22;3443;48.812;9.112;2022-11-02T09:18:59;13.40;99.90
6810;DHT22;3443;48.812;9.112;2022-11-02T09:21:24;13.50;99.90
6810;DHT22;3443;48.812;9.112;2022-11-02T09:23:50;13.50;99.90
6810;DHT22;3443;48.812;9.112;2022-11-02T09:26:15;13.50;99.90
6810;DHT22;3443;48.812;9.112;2022-11-02T09:28:41;13.50;99.90
6810;DHT22;3443;48.812;9.112;2022-11-02T09:31:08;13.60;99.90
6810;DHT22;3443;48.812;9.112;2022-11-02T09:33:33;13.60;99.90
6810;DHT22;3443;48.812;9.112;2022-11-02T09:36:02;13.60;99.90
6810;DHT22;3443;48.812;9.112;2022-11-02T09:38:28;13.70;99.90
6810;DHT22;3443;48.812;9.112;2022-11-02T09:48:28;13.80;99.90
6810;DHT22;3443;48.812;9.112;2022-11-02T09:51:04;13.90;99.90
6810;DHT22;3443;48.812;9.112;2022-11-02T09:54:05;13.90;99.90
6810;DHT22;3443;48.812;9.112;2022-11-02T09:56:33;14.00;99.90
6810;DHT22;3443;48.812;9.112;2022-11-02T09:59:09;14.00;99.90
6810;DHT22;3443;48.812;9.112;2022-11-02T10:09:57;14.00;99.90
6810;DHT22;3443;48.812;9.112;2022-11-02T10:12:36;14.00;99.90
6810;DHT22;3443;48.812;9.112;2022-11-02T10:15:16;14.00;99.90
6810;DHT22;3443;48.812;9.112;2022-11-02T10:17:43;14.00;99.90
6810;DHT22;3443;48.812;9.112;2022-11-02T10:22:49;14.00;99.90
6810;DHT22;3443;48.812;9.112;2022-11-02T10:25:16;14.10;99.90
6810;DHT22;3443;48.812;9.112;2022-11-02T10:27:43;14.00;99.90
6810;DHT22;3443;48.812;9.112;2022-11-02T10:30:12;14.00;99.90
6810;DHT22;3443;48.812;9.112;2022-11-02T10:32:39;14.00;99.90
6810;DHT22;3443;48.812;9.112;2022-11-02T10:35:19;14.00;99.90
6810;DHT22;3443;48.812;9.112;2022-11-02T10:43:57;14.00;99.90
6810;DHT22;3443;48.812;9.112;2022-11-02T10:49:13;13.90;99.90
6810;DHT22;3443;48.812;9.112;2022-11-02T10:51:43;13.90;99.90
6810;DHT22;3443;48.812;9.112;2022-11-02T10:54:13;13.90;99.90
6810;DHT22;3443;48.812;9.112;2022-11-02T10:56:43;14.00;99.90
6810;DHT22;3443;48.812;9.112;2022-11-02T10:59:16;14.10;99.90
6810;DHT22;3443;48.812;9.112;2022-11-02T11:04:29;14.50;99.90
6810;DHT22;3443;48.812;9.112;2022-11-02T11:06:55;14.10;99.90
6810;DHT22;3443;48.812;9.112;2022-11-02T11:09:27;14.10;99.90
6810;DHT22;3443;48.812;9.112;2022-11-02T11:12:05;14.10;99.90
6810;DHT22;3443;48.812;9.112;2022-11-02T11:14:47;14.00;99.90
6810;DHT22;3443;48.812;9.112;2022-11-02T11:17:15;14.00;99.90
6810;DHT22;3443;48.812;9.112;2022-11-02T11:19:47;14.10;99.90
6810;DHT22;3443;48.812;9.112;2022-11-02T11:22:46;13.90;99.90
6810;DHT22;3443;48.812;9.112;2022-11-02T11:25:31;13.90;99.90
6810;DHT22;3443;48.812;9.112;2022-11-02T11:27:58;13.90;99.90
6810;DHT22;3443;48.812;9.112;2022-11-02T11:30:30;13.90;99.90
6810;DHT22;3443;48.812;9.112;2022-11-02T11:32:58;14.00;99.90
6810;DHT22;3443;48.812;9.112;2022-11-02T11:35:36;14.10;99.90
6810;DHT22;3443;48.812;9.112;2022-11-02T11:38:06;14.30;99.90
6810;DHT22;3443;48.812;9.112;2022-11-02T11:40:36;14.50;99.90
6810;DHT22;3443;48.812;9.112;2022-11-02T11:43:03;14.70;99.90
6810;DHT22;3443;48.812;9.112;2022-11-02T11:45:31;14.90;99.90
6810;DHT22;3443;48.812;9.112;2022-11-02T11:48:16;15.00;99.90
6810;DHT22;3443;48.812;9.112;2022-11-02T11:50:48;15.10;99.90
6810;DHT22;3443;48.812;9.112;2022-11-02T11:53:23;15.10;99.90
6810;DHT22;3443;48.812;9.112;2022-11-02T11:55:54;15.30;99.90
6810;DHT22;3443;48.812;9.112;2022-11-02T11:58:31;15.30;99.90
6810;DHT22;3443;48.812;9.112;2022-11-02T12:11:36;15.30;99.90
6810;DHT22;3443;48.812;9.112;2022-11-02T12:16:58;15.20;99.90
6810;DHT22;3443;48.812;9.112;2022-11-02T12:30:56;15.30;99.90
6810;DHT22;3443;48.812;9.112;2022-11-02T12:44:40;15.40;99.90
6810;DHT22;3443;48.812;9.112;2022-11-02T12:55:16;15.40;99.90
6810;DHT22;3443;48.812;9.112;2022-11-02T12:57:43;15.40;99.90
6810;DHT22;3443;48.812;9.112;2022-11-02T13:00:20;15.50;99.90
6810;DHT22;3443;48.812;9.112;2022-11-02T13:02:54;15.60;99.90
6810;DHT22;3443;48.812;9.112;2022-11-02T13:05:26;15.70;99.90
6810;DHT22;3443;48.812;9.112;2022-11-02T13:08:09;15.60;99.90
6810;DHT22;3443;48.812;9.112;2022-11-02T13:10:47;15.50;99.90
6810;DHT22;3443;48.812;9.112;2022-11-02T13:13:16;15.50;99.90
6810;DHT22;3443;48.812;9.112;2022-11-02T13:15:46;15.60;99.90
6810;DHT22;3443;48.812;9.112;2022-11-02T13:18:39;15.40;99.90
6810;DHT22;3443;48.812;9.112;2022-11-02T13:21:07;15.60;99.90
6810;DHT22;3443;48.812;9.112;2022-11-02T13:23:45;15.60;99.90
6810;DHT22;3443;48.812;9.112;2022-11-02T13:28:51;15.70;99.90
6810;DHT22;3443;48.812;9.112;2022-11-02T13:31:31;15.70;99.90
6810;DHT22;3443;48.812;9.112;2022-11-02T13:34:01;15.70;99.90
6810;DHT22;3443;48.812;9.112;2022-11-02T13:36:29;15.50;99.90
6810;DHT22;3443;48.812;9.112;2022-11-02T13:38:57;15.50;99.90
6810;DHT22;3443;48.812;9.112;2022-11-02T13:41:35;15.60;99.90
6810;DHT22;3443;48.812;9.112;2022-11-02T13:47:16;15.50;99.90
6810;DHT22;3443;48.812;9.112;2022-11-02T13:49:50;15.40;99.90
6810;DHT22;3443;48.812;9.112;2022-11-02T13:52:28;15.50;99.90
6810;DHT22;3443;48.812;9.112;2022-11-02T13:54:59;15.40;99.90
6810;DHT22;3443;48.812;9.112;2022-11-02T13:59:55;15.20;99.90
6810;DHT22;3443;48.812;9.112;2022-11-02T14:02:22;15.10;99.90
6810;DHT22;3443;48.812;9.112;2022-11-02T14:04:48;15.00;99.90
6810;DHT22;3443;48.812;9.112;2022-11-02T14:07:33;14.90;99.90
6810;DHT22;3443;48.812;9.112;2022-11-02T14:10:12;14.90;99.90
6810;DHT22;3443;48.812;9.112;2022-11-02T14:20:32;14.60;99.90
6810;DHT22;3443;48.812;9.112;2022-11-02T14:25:52;14.60;99.90
6810;DHT22;3443;48.812;9.112;2022-11-02T14:30:53;14.30;99.90
6810;DHT22;3443;48.812;9.112;2022-11-02T14:36:21;14.50;99.90
6810;DHT22;3443;48.812;9.112;2022-11-02T14:44:29;14.30;99.90
6810;DHT22;3443;48.812;9.112;2022-11-02T14:47:14;14.30;99.90
6810;DHT22;3443;48.812;9.112;2022-11-02T14:49:52;14.20;99.90
6810;DHT22;3443;48.812;9.112;2022-11-02T14:52:34;14.20;99.90
6810;DHT22;3443;48.812;9.112;2022-11-02T14:57:40;14.00;99.90
6810;DHT22;3443;48.812;9.112;2022-11-02T15:00:21;14.00;99.90
6810;DHT22;3443;48.812;9.112;2022-11-02T15:02:47;13.90;99.90
6810;DHT22;3443;48.812;9.112;2022-11-02T15:05:25;13.80;99.90
6810;DHT22;3443;48.812;9.112;2022-11-02T15:10:40;13.70;99.90
6810;DHT22;3443;48.812;9.112;2022-11-02T15:16:13;13.70;99.90
6810;DHT22;3443;48.812;9.112;2022-11-02T15:18:33;13.70;99.90
6810;DHT22;3443;48.812;9.112;2022-11-02T15:26:14;13.60;99.90
6810;DHT22;3443;48.812;9.112;2022-11-02T15:28:43;13.50;99.90
6810;DHT22;3443;48.812;9.112;2022-11-02T15:31:16;13.50;99.90
6810;DHT22;3443;48.812;9.112;2022-11-02T15:33:48;13.40;99.90
6810;DHT22;3443;48.812;9.112;2022-11-02T15:36:32;13.30;99.90
6810;DHT22;3443;48.812;9.112;2022-11-02T15:39:06;13.10;99.90
6810;DHT22;3443;48.812;9.112;2022-11-02T15:47:33;12.70;99.90
6810;DHT22;3443;48.812;9.112;2022-11-02T15:55:45;12.50;99.90
6810;DHT22;3443;48.812;9.112;2022-11-02T15:58:51;12.30;99.90
6810;DHT22;3443;48.812;9.112;2022-11-02T16:01:27;12.20;99.90
6810;DHT22;3443;48.812;9.112;2022-11-02T16:04:03;12.10;99.90
6810;DHT22;3443;48.812;9.112;2022-11-02T16:06:39;12.00;99.90
6810;DHT22;3443;48.812;9.112;2022-11-02T16:09:32;11.90;99.90
6810;DHT22;3443;48.812;9.112;2022-11-02T16:12:15;11.80;99.90
6810;DHT22;3443;48.812;9.112;2022-11-02T16:14:42;11.70;99.90
6810;DHT22;3443;48.812;9.112;2022-11-02T16:17:19;11.70;99.90
6810;DHT22;3443;48.812;9.112;2022-11-02T16:19:44;11.60;99.90
6810;DHT22;3443;48.812;9.112;2022-11-02T16:22:11;11.60;99.90
6810;DHT22;3443;48.812;9.112;2022-11-02T16:24:41;11.40;99.90
6810;DHT22;3443;48.812;9.112;2022-11-02T16:27:11;11.40;99.90
6810;DHT22;3443;48.812;9.112;2022-11-02T16:29:38;11.30;99.90
6810;DHT22;3443;48.812;9.112;2022-11-02T16:32:11;11.30;99.90
6810;DHT22;3443;48.812;9.112;2022-11-02T16:34:38;11.20;99.90
6810;DHT22;3443;48.812;9.112;2022-11-02T16:37:04;11.20;99.90
6810;DHT22;3443;48.812;9.112;2022-11-02T16:39:31;11.20;99.90
6810;DHT22;3443;48.812;9.112;2022-11-02T16:42:13;11.10;99.90
6810;DHT22;3443;48.812;9.112;2022-11-02T16:44:39;11.00;99.90
6810;DHT22;3443;48.812;9.112;2022-11-02T16:52:33;10.90;99.90
6810;DHT22;3443;48.812;9.112;2022-11-02T16:54:59;10.90;99.90
6810;DHT22;3443;48.812;9.112;2022-11-02T16:57:30;10.80;99.90
6810;DHT22;3443;48.812;9.112;2022-11-02T17:00:05;10.80;99.90
6810;DHT22;3443;48.812;9.112;2022-11-02T17:02:41;10.80;99.90
6810;DHT22;3443;48.812;9.112;2022-11-02T17:07:48;10.70;99.90
6810;DHT22;3443;48.812;9.112;2022-11-02T17:10:25;10.70;99.90
6810;DHT22;3443;48.812;9.112;2022-11-02T17:12:51;10.70;99.90
6810;DHT22;3443;48.812;9.112;2022-11-02T17:15:20;10.60;99.90
6810;DHT22;3443;48.812;9.112;2022-11-02T17:17:46;10.50;99.90
6810;DHT22;3443;48.812;9.112;2022-11-02T17:22:48;10.40;99.90
6810;DHT22;3443;48.812;9.112;2022-11-02T17:27:48;10.40;99.90
6810;DHT22;3443;48.812;9.112;2022-11-02T17:33:11;10.20;99.90
6810;DHT22;3443;48.812;9.112;2022-11-02T17:35:47;10.20;99.90
6810;DHT22;3443;48.812;9.112;2022-11-02T17:38:13;10.20;99.90
6810;DHT22;3443;48.812;9.112;2022-11-02T17:40:38;10.10;99.90
6810;DHT22;3443;48.812;9.112;2022-11-02T17:43:04;10.10;99.90
6810;DHT22;3443;48.812;9.112;2022-11-02T17:45:32;10.00;99.90
6810;DHT22;3443;48.812;9.112;2022-11-02T17:48:00;10.00;99.90
6810;DHT22;3443;48.812;9.112;2022-11-02T17:50:30;10.10;99.90
6810;DHT22;3443;48.812;9.112;2022-11-02T17:52:58;10.00;99.90
6810;DHT22;3443;48.812;9.112;2022-11-02T17:55:26;10.00;99.90
6810;DHT22;3443;48.812;9.112;2022-11-02T17:57:52;9.90;99.90
6810;DHT22;3443;48.812;9.112;2022-11-02T18:00:18;9.90;99.90
6810;DHT22;3443;48.812;9.112;2022-11-02T18:02:50;9.80;99.90
6810;DHT22;3443;48.812;9.112;2022-11-02T18:05:33;9.80;99.90
6810;DHT22;3443;48.812;9.112;2022-11-02T18:07:59;9.80;99.90
6810;DHT22;3443;48.812;9.112;2022-11-02T18:10:36;9.70;99.90
6810;DHT22;3443;48.812;9.112;2022-11-02T18:13:02;9.60;99.90
6810;DHT22;3443;48.812;9.112;2022-11-02T18:15:30;9.60;99.90
6810;DHT22;3443;48.812;9.112;2022-11-02T18:17:56;9.70;99.90
6810;DHT22;3443;48.812;9.112;2022-11-02T18:20:23;9.60;99.90
6810;DHT22;3443;48.812;9.112;2022-11-02T18:22:49;9.60;99.90
6810;DHT22;3443;48.812;9.112;2022-11-02T18:25:16;9.60;99.90
6810;DHT22;3443;48.812;9.112;2022-11-02T18:27:43;9.50;99.90
6810;DHT22;3443;48.812;9.112;2022-11-02T18:30:11;9.50;99.90
6810;DHT22;3443;48.812;9.112;2022-11-02T18:32:39;9.50;99.90
6810;DHT22;3443;48.812;9.112;2022-11-02T18:35:06;9.40;99.90
6810;DHT22;3443;48.812;9.112;2022-11-02T18:37:32;9.40;99.90
6810;DHT22;3443;48.812;9.112;2022-11-02T18:39:58;9.40;99.90
6810;DHT22;3443;48.812;9.112;2022-11-02T18:42:24;9.40;99.90
6810;DHT22;3443;48.812;9.112;2022-11-02T18:44:50;9.40;99.90
6810;DHT22;3443;48.812;9.112;2022-11-02T18:47:15;9.40;99.90
6810;DHT22;3443;48.812;9.112;2022-11-02T18:49:41;9.40;99.90
6810;DHT22;3443;48.812;9.112;2022-11-02T18:52:07;9.30;99.90
6810;DHT22;3443;48.812;9.112;2022-11-02T18:54:33;9.30;99.90
6810;DHT22;3443;48.812;9.112;2022-11-02T18:56:58;9.30;99.90
6810;DHT22;3443;48.812;9.112;2022-11-02T18:59:24;9.30;99.90
6810;DHT22;3443;48.812;9.112;2022-11-02T19:01:50;9.30;99.90
6810;DHT22;3443;48.812;9.112;2022-11-02T19:04:16;9.30;99.90
6810;DHT22;3443;48.812;9.112;2022-11-02T19:06:42;9.20;99.90
6810;DHT22;3443;48.812;9.112;2022-11-02T19:09:26;9.20;99.90
6810;DHT22;3443;48.812;9.112;2022-11-02T19:12:06;9.20;99.90
6810;DHT22;3443;48.812;9.112;2022-11-02T19:14:41;9.10;99.90